sensor_id;sensor_type;location;lat;lon;timestamp;temperature;humidity
80779;SHT30;70170;47.856;10.956;2023-08-24T00:00:31;18.93;96.54
80779;SHT30;70170;47.856;10.956;2023-08-24T00:02:57;18.91;96.60
80779;SHT30;70170;47.856;10.956;2023-08-24T00:05:23;18.80;96.45
80779;SHT30;70170;47.856;10.956;2023-08-24T00:07:48;18.82;96.52
80779;SHT30;70170;47.856;10.956;2023-08-24T00:10:13;18.79;96.73
80779;SHT30;70170;47.856;10.956;2023-08-24T00:12:39;18.86;96.45
80779;SHT30;70170;47.856;10.956;2023-08-24T00:15:08;19.00;95.78
80779;SHT30;70170;47.856;10.956;2023-08-24T00:17:34;18.86;95.57
80779;SHT30;70170;47.856;10.956;2023-08-24T00:19:59;18.63;95.86
80779;SHT30;70170;47.856;10.956;2023-08-24T00:22:24;18.48;96.57
80779;SHT30;70170;47.856;10.956;2023-08-24T00:24:50;18.29;97.12
80779;SHT30;70170;47.856;10.956;2023-08-24T00:27:15;18.12;98.17
80779;SHT30;70170;47.856;10.956;2023-08-24T00:29:40;18.01;98.33
80779;SHT30;70170;47.856;10.956;2023-08-24T00:32:06;17.91;98.89
80779;SHT30;70170;47.856;10.956;2023-08-24T00:34:31;17.93;99.28
80779;SHT30;70170;47.856;10.956;2023-08-24T00:36:57;17.84;99.10
80779;SHT30;70170;47.856;10.956;2023-08-24T00:39:22;17.73;98.92
80779;SHT30;70170;47.856;10.956;2023-08-24T00:41:47;17.77;99.29
80779;SHT30;70170;47.856;10.956;2023-08-24T00:44:13;17.69;99.58
80779;SHT30;70170;47.856;10.956;2023-08-24T00:46:38;17.67;99.90
80779;SHT30;70170;47.856;10.956;2023-08-24T00:49:04;17.66;99.99
80779;SHT30;70170;47.856;10.956;2023-08-24T00:51:29;17.57;99.99
80779;SHT30;70170;47.856;10.956;2023-08-24T00:53:55;17.47;99.99
80779;SHT30;70170;47.856;10.956;2023-08-24T00:56:22;17.36;99.99
80779;SHT30;70170;47.856;10.956;2023-08-24T00:58:50;17.31;99.99
80779;SHT30;70170;47.856;10.956;2023-08-24T01:01:17;17.34;99.99
80779;SHT30;70170;47.856;10.956;2023-08-24T01:03:43;17.50;99.99
80779;SHT30;70170;47.856;10.956;2023-08-24T01:06:08;17.57;99.99
80779;SHT30;70170;47.856;10.956;2023-08-24T01:08:34;17.59;99.99
80779;SHT30;70170;47.856;10.956;2023-08-24T01:14:08;17.59;99.99
80779;SHT30;70170;47.856;10.956;2023-08-24T01:16:35;17.45;99.99
80779;SHT30;70170;47.856;10.956;2023-08-24T01:19:06;17.47;99.99
80779;SHT30;70170;47.856;10.956;2023-08-24T01:21:36;17.61;99.99
80779;SHT30;70170;47.856;10.956;2023-08-24T01:24:12;17.50;99.99
80779;SHT30;70170;47.856;10.956;2023-08-24T01:26:39;17.43;99.99
80779;SHT30;70170;47.856;10.956;2023-08-24T01:29:05;17.29;99.99
80779;SHT30;70170;47.856;10.956;2023-08-24T01:31:32;17.24;99.99
80779;SHT30;70170;47.856;10.956;2023-08-24T01:33:57;17.22;99.99
80779;SHT30;70170;47.856;10.956;2023-08-24T01:36:23;17.14;99.99
80779;SHT30;70170;47.856;10.956;2023-08-24T01:39:11;17.01;99.99
80779;SHT30;70170;47.856;10.956;2023-08-24T01:41:39;16.91;99.99
80779;SHT30;70170;47.856;10.956;2023-08-24T01:44:09;17.04;99.99
80779;SHT30;70170;47.856;10.956;2023-08-24T01:46:37;17.03;99.99
80779;SHT30;70170;47.856;10.956;2023-08-24T01:49:05;17.10;99.99
80779;SHT30;70170;47.856;10.956;2023-08-24T01:51:33;17.21;99.99
80779;SHT30;70170;47.856;10.956;2023-08-24T01:53:59;17.22;99.99
80779;SHT30;70170;47.856;10.956;2023-08-24T01:56:25;17.10;99.99
80779;SHT30;70170;47.856;10.956;2023-08-24T01:58:50;16.97;99.99
80779;SHT30;70170;47.856;10.956;2023-08-24T02:01:15;16.87;99.99
80779;SHT30;70170;47.856;10.956;2023-08-24T02:03:41;17.01;99.99
80779;SHT30;70170;47.856;10.956;2023-08-24T02:06:06;17.17;99.99
80779;SHT30;70170;47.856;10.956;2023-08-24T02:08:32;17.17;99.99
80779;SHT30;70170;47.856;10.956;2023-08-24T02:10:57;17.25;99.99
80779;SHT30;70170;47.856;10.956;2023-08-24T02:13:23;17.42;99.99
80779;SHT30;70170;47.856;10.956;2023-08-24T02:15:48;17.32;99.99
80779;SHT30;70170;47.856;10.956;2023-08-24T02:18:13;17.25;99.99
80779;SHT30;70170;47.856;10.956;2023-08-24T02:20:39;17.25;99.99
80779;SHT30;70170;47.856;10.956;2023-08-24T02:23:04;17.06;99.99
80779;SHT30;70170;47.856;10.956;2023-08-24T02:25:30;17.01;99.99
80779;SHT30;70170;47.856;10.956;2023-08-24T02:27:56;17.01;99.99
80779;SHT30;70170;47.856;10.956;2023-08-24T02:30:31;17.08;99.99
80779;SHT30;70170;47.856;10.956;2023-08-24T02:32:57;17.08;99.99
80779;SHT30;70170;47.856;10.956;2023-08-24T02:35:22;17.18;99.99
80779;SHT30;70170;47.856;10.956;2023-08-24T02:37:47;17.10;99.99
80779;SHT30;70170;47.856;10.956;2023-08-24T02:40:14;17.18;99.99
80779;SHT30;70170;47.856;10.956;2023-08-24T02:42:39;17.35;99.99
80779;SHT30;70170;47.856;10.956;2023-08-24T02:45:05;17.29;99.99
80779;SHT30;70170;47.856;10.956;2023-08-24T02:47:30;17.12;99.99
80779;SHT30;70170;47.856;10.956;2023-08-24T02:49:56;17.00;99.99
80779;SHT30;70170;47.856;10.956;2023-08-24T02:52:21;16.95;99.99
80779;SHT30;70170;47.856;10.956;2023-08-24T02:54:46;17.08;99.99
80779;SHT30;70170;47.856;10.956;2023-08-24T02:57:12;16.95;99.99
80779;SHT30;70170;47.856;10.956;2023-08-24T02:59:37;16.98;99.99
80779;SHT30;70170;47.856;10.956;2023-08-24T03:02:02;16.92;99.99
80779;SHT30;70170;47.856;10.956;2023-08-24T03:04:29;16.88;99.99
80779;SHT30;70170;47.856;10.956;2023-08-24T03:06:54;16.79;99.99
80779;SHT30;70170;47.856;10.956;2023-08-24T03:09:22;16.95;99.99
80779;SHT30;70170;47.856;10.956;2023-08-24T03:11:47;17.01;99.99
80779;SHT30;70170;47.856;10.956;2023-08-24T03:14:13;16.92;99.99
80779;SHT30;70170;47.856;10.956;2023-08-24T03:16:38;16.81;99.99
80779;SHT30;70170;47.856;10.956;2023-08-24T03:19:04;16.69;99.99
80779;SHT30;70170;47.856;10.956;2023-08-24T03:21:29;16.56;99.99
80779;SHT30;70170;47.856;10.956;2023-08-24T03:23:55;16.70;99.99
80779;SHT30;70170;47.856;10.956;2023-08-24T03:26:20;16.69;99.99
80779;SHT30;70170;47.856;10.956;2023-08-24T03:28:48;16.72;99.99
80779;SHT30;70170;47.856;10.956;2023-08-24T03:31:13;16.57;99.99
80779;SHT30;70170;47.856;10.956;2023-08-24T03:33:38;16.57;99.99
80779;SHT30;70170;47.856;10.956;2023-08-24T03:36:04;16.66;99.99
80779;SHT30;70170;47.856;10.956;2023-08-24T03:38:29;16.73;99.99
80779;SHT30;70170;47.856;10.956;2023-08-24T03:41:02;16.60;99.99
80779;SHT30;70170;47.856;10.956;2023-08-24T03:43:31;16.55;99.99
80779;SHT30;70170;47.856;10.956;2023-08-24T03:45:56;16.63;99.99
80779;SHT30;70170;47.856;10.956;2023-08-24T03:48:21;16.62;99.99
80779;SHT30;70170;47.856;10.956;2023-08-24T03:50:47;16.63;99.99
80779;SHT30;70170;47.856;10.956;2023-08-24T03:53:12;16.57;99.99
80779;SHT30;70170;47.856;10.956;2023-08-24T03:55:38;16.62;99.99
80779;SHT30;70170;47.856;10.956;2023-08-24T03:58:03;16.51;99.99
80779;SHT30;70170;47.856;10.956;2023-08-24T04:00:28;16.32;99.99
80779;SHT30;70170;47.856;10.956;2023-08-24T04:02:54;16.30;99.99
80779;SHT30;70170;47.856;10.956;2023-08-24T04:05:19;16.25;99.99
80779;SHT30;70170;47.856;10.956;2023-08-24T04:07:44;16.26;99.99
80779;SHT30;70170;47.856;10.956;2023-08-24T04:10:11;16.29;99.99
80779;SHT30;70170;47.856;10.956;2023-08-24T04:12:36;16.52;99.99
80779;SHT30;70170;47.856;10.956;2023-08-24T04:15:02;16.35;99.99
80779;SHT30;70170;47.856;10.956;2023-08-24T04:17:27;16.25;99.99
80779;SHT30;70170;47.856;10.956;2023-08-24T04:19:59;16.25;99.99
80779;SHT30;70170;47.856;10.956;2023-08-24T04:22:24;16.14;99.99
80779;SHT30;70170;47.856;10.956;2023-08-24T04:24:50;16.21;99.99
80779;SHT30;70170;47.856;10.956;2023-08-24T04:27:15;16.09;99.99
80779;SHT30;70170;47.856;10.956;2023-08-24T04:29:40;16.46;99.99
80779;SHT30;70170;47.856;10.956;2023-08-24T04:32:06;16.69;99.99
80779;SHT30;70170;47.856;10.956;2023-08-24T04:34:31;16.70;99.99
80779;SHT30;70170;47.856;10.956;2023-08-24T04:36:56;16.83;99.99
80779;SHT30;70170;47.856;10.956;2023-08-24T04:39:21;16.76;99.99
80779;SHT30;70170;47.856;10.956;2023-08-24T04:41:50;16.66;99.99
80779;SHT30;70170;47.856;10.956;2023-08-24T04:44:15;16.64;99.99
80779;SHT30;70170;47.856;10.956;2023-08-24T04:46:41;16.69;99.99
80779;SHT30;70170;47.856;10.956;2023-08-24T04:49:06;16.74;99.99
80779;SHT30;70170;47.856;10.956;2023-08-24T04:51:31;16.73;99.99
80779;SHT30;70170;47.856;10.956;2023-08-24T04:53:57;16.64;99.99
80779;SHT30;70170;47.856;10.956;2023-08-24T04:56:22;16.64;99.99
80779;SHT30;70170;47.856;10.956;2023-08-24T04:58:57;16.77;99.99
80779;SHT30;70170;47.856;10.956;2023-08-24T05:01:27;16.81;99.99
80779;SHT30;70170;47.856;10.956;2023-08-24T05:03:53;17.00;99.99
80779;SHT30;70170;47.856;10.956;2023-08-24T05:06:19;17.03;99.99
80779;SHT30;70170;47.856;10.956;2023-08-24T05:08:45;17.14;99.99
80779;SHT30;70170;47.856;10.956;2023-08-24T05:11:12;17.25;99.99
80779;SHT30;70170;47.856;10.956;2023-08-24T05:13:39;17.43;99.99
80779;SHT30;70170;47.856;10.956;2023-08-24T05:16:04;17.52;99.99
80779;SHT30;70170;47.856;10.956;2023-08-24T05:18:29;17.73;99.99
80779;SHT30;70170;47.856;10.956;2023-08-24T05:20:55;17.90;99.99
80779;SHT30;70170;47.856;10.956;2023-08-24T05:23:20;18.04;99.92
80779;SHT30;70170;47.856;10.956;2023-08-24T05:25:45;18.28;99.99
80779;SHT30;70170;47.856;10.956;2023-08-24T05:28:10;18.49;99.06
80779;SHT30;70170;47.856;10.956;2023-08-24T05:30:36;18.72;99.01
80779;SHT30;70170;47.856;10.956;2023-08-24T05:33:01;18.86;96.85
80779;SHT30;70170;47.856;10.956;2023-08-24T05:35:26;19.07;97.37
80779;SHT30;70170;47.856;10.956;2023-08-24T05:37:52;19.21;96.17
80779;SHT30;70170;47.856;10.956;2023-08-24T05:40:18;19.55;96.32
80779;SHT30;70170;47.856;10.956;2023-08-24T05:42:43;19.72;94.99
80779;SHT30;70170;47.856;10.956;2023-08-24T05:45:09;20.01;95.11
80779;SHT30;70170;47.856;10.956;2023-08-24T05:47:34;20.41;94.26
80779;SHT30;70170;47.856;10.956;2023-08-24T05:49:59;20.71;93.42
80779;SHT30;70170;47.856;10.956;2023-08-24T05:52:25;20.99;91.75
80779;SHT30;70170;47.856;10.956;2023-08-24T05:54:50;21.31;91.51
80779;SHT30;70170;47.856;10.956;2023-08-24T05:57:15;21.67;91.56
80779;SHT30;70170;47.856;10.956;2023-08-24T05:59:41;21.93;89.59
80779;SHT30;70170;47.856;10.956;2023-08-24T06:02:06;22.18;88.12
80779;SHT30;70170;47.856;10.956;2023-08-24T06:04:31;22.43;86.64
80779;SHT30;70170;47.856;10.956;2023-08-24T06:06:57;22.61;86.31
80779;SHT30;70170;47.856;10.956;2023-08-24T06:09:22;22.79;85.26
80779;SHT30;70170;47.856;10.956;2023-08-24T06:11:47;23.06;83.43
80779;SHT30;70170;47.856;10.956;2023-08-24T06:14:13;23.19;82.95
80779;SHT30;70170;47.856;10.956;2023-08-24T06:16:38;23.27;82.72
80779;SHT30;70170;47.856;10.956;2023-08-24T06:19:03;23.48;82.74
80779;SHT30;70170;47.856;10.956;2023-08-24T06:21:28;23.55;82.00
80779;SHT30;70170;47.856;10.956;2023-08-24T06:23:54;23.71;82.03
80779;SHT30;70170;47.856;10.956;2023-08-24T06:26:19;23.78;81.60
80779;SHT30;70170;47.856;10.956;2023-08-24T06:28:44;24.23;80.58
80779;SHT30;70170;47.856;10.956;2023-08-24T06:31:10;24.61;78.72
80779;SHT30;70170;47.856;10.956;2023-08-24T06:33:36;24.72;78.88
80779;SHT30;70170;47.856;10.956;2023-08-24T06:36:02;24.93;77.83
80779;SHT30;70170;47.856;10.956;2023-08-24T06:38:30;25.18;77.24
80779;SHT30;70170;47.856;10.956;2023-08-24T06:40:57;25.55;76.24
80779;SHT30;70170;47.856;10.956;2023-08-24T06:43:23;25.92;74.38
80779;SHT30;70170;47.856;10.956;2023-08-24T06:45:48;26.01;74.19
80779;SHT30;70170;47.856;10.956;2023-08-24T06:48:13;26.12;73.34
80779;SHT30;70170;47.856;10.956;2023-08-24T06:50:39;25.68;75.03
80779;SHT30;70170;47.856;10.956;2023-08-24T06:53:04;25.26;76.17
80779;SHT30;70170;47.856;10.956;2023-08-24T06:55:30;24.91;77.06
80779;SHT30;70170;47.856;10.956;2023-08-24T06:57:55;24.64;79.45
80779;SHT30;70170;47.856;10.956;2023-08-24T07:00:21;24.72;78.25
80779;SHT30;70170;47.856;10.956;2023-08-24T07:02:47;24.13;81.17
80779;SHT30;70170;47.856;10.956;2023-08-24T07:05:14;23.11;83.65
80779;SHT30;70170;47.856;10.956;2023-08-24T07:07:39;23.26;83.42
80779;SHT30;70170;47.856;10.956;2023-08-24T07:10:06;23.21;83.92
80779;SHT30;70170;47.856;10.956;2023-08-24T07:12:32;23.36;83.58
80779;SHT30;70170;47.856;10.956;2023-08-24T07:14:57;23.98;82.23
80779;SHT30;70170;47.856;10.956;2023-08-24T07:17:23;24.65;79.99
80779;SHT30;70170;47.856;10.956;2023-08-24T07:19:48;24.44;80.50
80779;SHT30;70170;47.856;10.956;2023-08-24T07:22:13;24.74;79.51
80779;SHT30;70170;47.856;10.956;2023-08-24T07:24:39;24.83;79.15
80779;SHT30;70170;47.856;10.956;2023-08-24T07:27:04;25.12;77.41
80779;SHT30;70170;47.856;10.956;2023-08-24T07:29:30;25.43;77.34
80779;SHT30;70170;47.856;10.956;2023-08-24T07:31:55;26.01;75.72
80779;SHT30;70170;47.856;10.956;2023-08-24T07:34:20;26.05;75.39
80779;SHT30;70170;47.856;10.956;2023-08-24T07:36:47;26.19;74.88
80779;SHT30;70170;47.856;10.956;2023-08-24T07:39:14;26.19;75.41
80779;SHT30;70170;47.856;10.956;2023-08-24T07:41:40;26.13;75.81
80779;SHT30;70170;47.856;10.956;2023-08-24T07:44:06;25.27;77.55
80779;SHT30;70170;47.856;10.956;2023-08-24T07:46:32;25.60;77.15
80779;SHT30;70170;47.856;10.956;2023-08-24T07:48:57;25.80;75.28
80779;SHT30;70170;47.856;10.956;2023-08-24T07:51:22;25.82;76.05
80779;SHT30;70170;47.856;10.956;2023-08-24T07:53:47;26.09;75.71
80779;SHT30;70170;47.856;10.956;2023-08-24T07:56:14;26.15;75.05
80779;SHT30;70170;47.856;10.956;2023-08-24T07:58:39;26.18;73.93
80779;SHT30;70170;47.856;10.956;2023-08-24T08:01:04;26.15;72.98
80779;SHT30;70170;47.856;10.956;2023-08-24T08:03:30;25.84;74.36
80779;SHT30;70170;47.856;10.956;2023-08-24T08:05:56;26.12;72.86
80779;SHT30;70170;47.856;10.956;2023-08-24T08:08:22;25.63;73.18
80779;SHT30;70170;47.856;10.956;2023-08-24T08:10:47;26.48;72.70
80779;SHT30;70170;47.856;10.956;2023-08-24T08:13:12;26.43;70.67
80779;SHT30;70170;47.856;10.956;2023-08-24T08:15:38;26.53;71.25
80779;SHT30;70170;47.856;10.956;2023-08-24T08:18:05;26.05;70.46
80779;SHT30;70170;47.856;10.956;2023-08-24T08:20:30;26.18;70.92
80779;SHT30;70170;47.856;10.956;2023-08-24T08:22:56;26.06;69.87
80779;SHT30;70170;47.856;10.956;2023-08-24T08:25:21;25.93;71.12
80779;SHT30;70170;47.856;10.956;2023-08-24T08:27:47;26.30;71.44
80779;SHT30;70170;47.856;10.956;2023-08-24T08:30:13;26.65;70.30
80779;SHT30;70170;47.856;10.956;2023-08-24T08:32:39;26.65;68.53
80779;SHT30;70170;47.856;10.956;2023-08-24T08:35:05;25.61;70.43
80779;SHT30;70170;47.856;10.956;2023-08-24T08:37:31;26.01;71.16
80779;SHT30;70170;47.856;10.956;2023-08-24T08:39:57;26.61;70.87
80779;SHT30;70170;47.856;10.956;2023-08-24T08:42:22;26.73;72.01
80779;SHT30;70170;47.856;10.956;2023-08-24T08:44:48;27.58;68.32
80779;SHT30;70170;47.856;10.956;2023-08-24T08:47:15;27.64;66.71
80779;SHT30;70170;47.856;10.956;2023-08-24T08:49:42;27.81;69.75
80779;SHT30;70170;47.856;10.956;2023-08-24T08:52:08;28.19;66.37
80779;SHT30;70170;47.856;10.956;2023-08-24T08:54:34;27.92;67.93
80779;SHT30;70170;47.856;10.956;2023-08-24T08:57:00;28.20;66.74
80779;SHT30;70170;47.856;10.956;2023-08-24T08:59:27;28.22;63.67
80779;SHT30;70170;47.856;10.956;2023-08-24T09:01:56;27.80;65.70
80779;SHT30;70170;47.856;10.956;2023-08-24T09:04:23;27.95;65.94
80779;SHT30;70170;47.856;10.956;2023-08-24T09:06:49;27.58;67.07
80779;SHT30;70170;47.856;10.956;2023-08-24T09:09:15;28.12;67.28
80779;SHT30;70170;47.856;10.956;2023-08-24T09:11:40;27.85;66.62
80779;SHT30;70170;47.856;10.956;2023-08-24T09:14:07;27.28;67.68
80779;SHT30;70170;47.856;10.956;2023-08-24T09:16:32;27.82;67.09
80779;SHT30;70170;47.856;10.956;2023-08-24T09:18:58;28.06;67.24
80779;SHT30;70170;47.856;10.956;2023-08-24T09:21:23;28.47;65.90
80779;SHT30;70170;47.856;10.956;2023-08-24T09:23:55;28.68;66.27
80779;SHT30;70170;47.856;10.956;2023-08-24T09:26:28;28.66;66.90
80779;SHT30;70170;47.856;10.956;2023-08-24T09:28:54;27.85;69.11
80779;SHT30;70170;47.856;10.956;2023-08-24T09:31:19;27.98;68.20
80779;SHT30;70170;47.856;10.956;2023-08-24T09:33:44;28.53;67.03
80779;SHT30;70170;47.856;10.956;2023-08-24T09:36:13;28.37;69.25
80779;SHT30;70170;47.856;10.956;2023-08-24T09:38:46;28.31;68.15
80779;SHT30;70170;47.856;10.956;2023-08-24T09:41:12;28.00;70.27
80779;SHT30;70170;47.856;10.956;2023-08-24T09:43:38;28.46;67.50
80779;SHT30;70170;47.856;10.956;2023-08-24T09:46:05;28.67;67.77
80779;SHT30;70170;47.856;10.956;2023-08-24T09:48:31;28.80;69.53
80779;SHT30;70170;47.856;10.956;2023-08-24T09:50:57;28.75;67.03
80779;SHT30;70170;47.856;10.956;2023-08-24T09:53:28;28.77;67.15
80779;SHT30;70170;47.856;10.956;2023-08-24T09:56:00;28.52;66.59
80779;SHT30;70170;47.856;10.956;2023-08-24T09:58:26;28.75;68.17
80779;SHT30;70170;47.856;10.956;2023-08-24T10:00:52;28.75;67.39
80779;SHT30;70170;47.856;10.956;2023-08-24T10:03:26;28.28;67.50
80779;SHT30;70170;47.856;10.956;2023-08-24T10:05:54;29.02;68.05
80779;SHT30;70170;47.856;10.956;2023-08-24T10:08:29;29.23;66.45
80779;SHT30;70170;47.856;10.956;2023-08-24T10:10:56;29.19;67.22
80779;SHT30;70170;47.856;10.956;2023-08-24T10:13:31;28.98;66.57
80779;SHT30;70170;47.856;10.956;2023-08-24T10:15:59;29.45;68.13
80779;SHT30;70170;47.856;10.956;2023-08-24T10:18:25;29.42;66.28
80779;SHT30;70170;47.856;10.956;2023-08-24T10:20:52;29.09;66.47
80779;SHT30;70170;47.856;10.956;2023-08-24T10:23:19;29.07;65.24
80779;SHT30;70170;47.856;10.956;2023-08-24T10:25:46;29.49;63.77
80779;SHT30;70170;47.856;10.956;2023-08-24T10:28:11;29.15;64.70
80779;SHT30;70170;47.856;10.956;2023-08-24T10:30:39;30.94;61.63
80779;SHT30;70170;47.856;10.956;2023-08-24T10:33:05;30.07;63.10
80779;SHT30;70170;47.856;10.956;2023-08-24T10:35:31;29.81;64.62
80779;SHT30;70170;47.856;10.956;2023-08-24T10:37:58;29.25;65.11
80779;SHT30;70170;47.856;10.956;2023-08-24T10:40:31;29.64;63.12
80779;SHT30;70170;47.856;10.956;2023-08-24T10:42:56;29.67;64.50
80779;SHT30;70170;47.856;10.956;2023-08-24T10:45:22;30.25;64.70
80779;SHT30;70170;47.856;10.956;2023-08-24T10:47:52;29.97;65.14
80779;SHT30;70170;47.856;10.956;2023-08-24T10:50:19;29.77;64.86
80779;SHT30;70170;47.856;10.956;2023-08-24T10:52:44;29.76;64.81
80779;SHT30;70170;47.856;10.956;2023-08-24T10:55:26;29.76;62.29
80779;SHT30;70170;47.856;10.956;2023-08-24T10:57:57;29.92;61.00
80779;SHT30;70170;47.856;10.956;2023-08-24T11:00:25;30.94;54.68
80779;SHT30;70170;47.856;10.956;2023-08-24T11:02:51;30.76;55.27
80779;SHT30;70170;47.856;10.956;2023-08-24T11:05:18;31.14;52.48
80779;SHT30;70170;47.856;10.956;2023-08-24T11:07:56;30.55;56.86
80779;SHT30;70170;47.856;10.956;2023-08-24T11:10:24;30.19;57.83
80779;SHT30;70170;47.856;10.956;2023-08-24T11:15:33;30.77;57.05
80779;SHT30;70170;47.856;10.956;2023-08-24T11:20:54;30.73;56.05
80779;SHT30;70170;47.856;10.956;2023-08-24T11:23:21;30.76;56.74
80779;SHT30;70170;47.856;10.956;2023-08-24T11:25:49;31.80;53.81
80779;SHT30;70170;47.856;10.956;2023-08-24T11:28:18;31.39;56.00
80779;SHT30;70170;47.856;10.956;2023-08-24T11:30:44;31.04;58.22
80779;SHT30;70170;47.856;10.956;2023-08-24T11:33:11;30.93;56.86
80779;SHT30;70170;47.856;10.956;2023-08-24T11:35:40;31.15;57.02
80779;SHT30;70170;47.856;10.956;2023-08-24T11:38:06;31.32;56.25
80779;SHT30;70170;47.856;10.956;2023-08-24T11:40:32;31.45;54.26
80779;SHT30;70170;47.856;10.956;2023-08-24T11:42:57;31.38;54.38
80779;SHT30;70170;47.856;10.956;2023-08-24T11:45:23;31.46;55.90
80779;SHT30;70170;47.856;10.956;2023-08-24T11:47:49;31.59;54.30
80779;SHT30;70170;47.856;10.956;2023-08-24T11:50:16;31.82;54.46
80779;SHT30;70170;47.856;10.956;2023-08-24T11:52:42;31.98;56.17
80779;SHT30;70170;47.856;10.956;2023-08-24T11:55:07;32.01;53.09
80779;SHT30;70170;47.856;10.956;2023-08-24T11:57:34;32.00;53.18
80779;SHT30;70170;47.856;10.956;2023-08-24T12:00:01;32.03;53.47
80779;SHT30;70170;47.856;10.956;2023-08-24T12:02:27;32.61;52.76
80779;SHT30;70170;47.856;10.956;2023-08-24T12:04:52;32.58;53.05
80779;SHT30;70170;47.856;10.956;2023-08-24T12:07:20;33.34;50.23
80779;SHT30;70170;47.856;10.956;2023-08-24T12:09:46;33.83;52.16
80779;SHT30;70170;47.856;10.956;2023-08-24T12:12:15;33.35;51.59
80779;SHT30;70170;47.856;10.956;2023-08-24T12:14:42;34.30;50.32
80779;SHT30;70170;47.856;10.956;2023-08-24T12:17:09;34.44;49.56
80779;SHT30;70170;47.856;10.956;2023-08-24T12:19:34;34.44;50.11
80779;SHT30;70170;47.856;10.956;2023-08-24T12:21:59;33.24;52.73
80779;SHT30;70170;47.856;10.956;2023-08-24T12:24:25;33.00;52.32
80779;SHT30;70170;47.856;10.956;2023-08-24T12:26:57;33.47;52.22
80779;SHT30;70170;47.856;10.956;2023-08-24T12:29:23;34.16;48.89
80779;SHT30;70170;47.856;10.956;2023-08-24T12:31:48;34.79;48.11
80779;SHT30;70170;47.856;10.956;2023-08-24T12:34:15;35.29;48.33
80779;SHT30;70170;47.856;10.956;2023-08-24T12:36:41;35.09;49.97
80779;SHT30;70170;47.856;10.956;2023-08-24T12:39:09;35.32;48.46
80779;SHT30;70170;47.856;10.956;2023-08-24T12:41:37;35.88;46.64
80779;SHT30;70170;47.856;10.956;2023-08-24T12:44:03;36.11;45.51
80779;SHT30;70170;47.856;10.956;2023-08-24T12:46:43;36.31;46.67
80779;SHT30;70170;47.856;10.956;2023-08-24T12:49:08;36.39;46.09
80779;SHT30;70170;47.856;10.956;2023-08-24T12:51:33;36.51;45.81
80779;SHT30;70170;47.856;10.956;2023-08-24T12:53:58;36.32;46.42
80779;SHT30;70170;47.856;10.956;2023-08-24T12:56:24;35.89;45.21
80779;SHT30;70170;47.856;10.956;2023-08-24T12:58:49;36.21;43.93
80779;SHT30;70170;47.856;10.956;2023-08-24T13:01:14;36.63;44.29
80779;SHT30;70170;47.856;10.956;2023-08-24T13:03:40;37.70;43.57
80779;SHT30;70170;47.856;10.956;2023-08-24T13:06:06;37.17;44.80
80779;SHT30;70170;47.856;10.956;2023-08-24T13:08:31;37.55;43.17
80779;SHT30;70170;47.856;10.956;2023-08-24T13:10:56;38.18;40.11
80779;SHT30;70170;47.856;10.956;2023-08-24T13:13:22;37.97;39.52
80779;SHT30;70170;47.856;10.956;2023-08-24T13:15:50;38.38;38.78
80779;SHT30;70170;47.856;10.956;2023-08-24T13:18:16;38.80;40.11
80779;SHT30;70170;47.856;10.956;2023-08-24T13:20:42;38.52;41.06
80779;SHT30;70170;47.856;10.956;2023-08-24T13:23:07;38.76;38.96
80779;SHT30;70170;47.856;10.956;2023-08-24T13:25:33;38.93;37.11
80779;SHT30;70170;47.856;10.956;2023-08-24T13:27:58;39.44;37.80
80779;SHT30;70170;47.856;10.956;2023-08-24T13:30:23;39.61;35.60
80779;SHT30;70170;47.856;10.956;2023-08-24T13:32:49;39.21;35.81
80779;SHT30;70170;47.856;10.956;2023-08-24T13:35:14;39.06;35.76
80779;SHT30;70170;47.856;10.956;2023-08-24T13:37:39;39.06;35.91
80779;SHT30;70170;47.856;10.956;2023-08-24T13:40:05;38.79;34.55
80779;SHT30;70170;47.856;10.956;2023-08-24T13:42:32;39.34;36.32
80779;SHT30;70170;47.856;10.956;2023-08-24T13:44:57;38.49;35.39
80779;SHT30;70170;47.856;10.956;2023-08-24T13:47:23;38.84;35.23
80779;SHT30;70170;47.856;10.956;2023-08-24T13:49:48;38.27;35.87
80779;SHT30;70170;47.856;10.956;2023-08-24T13:52:13;38.52;36.04
80779;SHT30;70170;47.856;10.956;2023-08-24T13:54:39;38.01;35.56
80779;SHT30;70170;47.856;10.956;2023-08-24T13:57:04;37.21;36.39
80779;SHT30;70170;47.856;10.956;2023-08-24T13:59:30;37.73;36.04
80779;SHT30;70170;47.856;10.956;2023-08-24T14:01:55;37.52;37.77
80779;SHT30;70170;47.856;10.956;2023-08-24T14:04:21;37.73;38.59
80779;SHT30;70170;47.856;10.956;2023-08-24T14:06:46;37.39;36.26
80779;SHT30;70170;47.856;10.956;2023-08-24T14:09:13;36.88;38.80
80779;SHT30;70170;47.856;10.956;2023-08-24T14:11:38;36.02;38.89
80779;SHT30;70170;47.856;10.956;2023-08-24T14:14:04;36.09;38.62
80779;SHT30;70170;47.856;10.956;2023-08-24T14:16:29;36.12;38.51
80779;SHT30;70170;47.856;10.956;2023-08-24T14:18:55;36.81;39.64
80779;SHT30;70170;47.856;10.956;2023-08-24T14:21:20;37.18;38.05
80779;SHT30;70170;47.856;10.956;2023-08-24T14:23:46;37.07;37.68
80779;SHT30;70170;47.856;10.956;2023-08-24T14:26:11;37.67;38.72
80779;SHT30;70170;47.856;10.956;2023-08-24T14:28:54;37.65;36.20
80779;SHT30;70170;47.856;10.956;2023-08-24T14:31:21;37.73;35.48
80779;SHT30;70170;47.856;10.956;2023-08-24T14:33:46;38.27;36.82
80779;SHT30;70170;47.856;10.956;2023-08-24T14:36:11;38.32;36.14
80779;SHT30;70170;47.856;10.956;2023-08-24T14:38:41;38.70;35.58
80779;SHT30;70170;47.856;10.956;2023-08-24T14:41:10;38.53;37.45
80779;SHT30;70170;47.856;10.956;2023-08-24T14:43:35;37.93;36.97
80779;SHT30;70170;47.856;10.956;2023-08-24T14:46:01;37.91;36.77
80779;SHT30;70170;47.856;10.956;2023-08-24T14:48:26;37.63;36.18
80779;SHT30;70170;47.856;10.956;2023-08-24T14:50:51;37.35;38.54
80779;SHT30;70170;47.856;10.956;2023-08-24T14:53:17;37.33;38.83
80779;SHT30;70170;47.856;10.956;2023-08-24T14:55:42;37.45;38.39
80779;SHT30;70170;47.856;10.956;2023-08-24T14:58:08;37.50;39.90
80779;SHT30;70170;47.856;10.956;2023-08-24T15:00:33;37.87;37.26
80779;SHT30;70170;47.856;10.956;2023-08-24T15:02:59;38.04;38.97
80779;SHT30;70170;47.856;10.956;2023-08-24T15:05:24;38.41;38.51
80779;SHT30;70170;47.856;10.956;2023-08-24T15:07:50;38.41;37.54
80779;SHT30;70170;47.856;10.956;2023-08-24T15:10:15;39.24;36.45
80779;SHT30;70170;47.856;10.956;2023-08-24T15:12:43;39.77;35.23
80779;SHT30;70170;47.856;10.956;2023-08-24T15:15:08;40.10;35.56
80779;SHT30;70170;47.856;10.956;2023-08-24T15:17:35;39.97;35.52